createdAt,value
2019-03-22T00:02:24.781Z,102776.02
2019-03-22T00:04:55.541Z,102779.61
2019-03-22T00:07:26.590Z,102773.31
2019-03-22T00:09:57.115Z,102770.42
2019-03-22T00:12:28.273Z,102769.07
2019-03-22T00:14:58.480Z,102767.09
2019-03-22T00:17:29.555Z,102761.95
2019-03-22T00:20:00.064Z,102755.66
2019-03-22T00:22:30.275Z,102757.89
2019-03-22T00:25:00.616Z,102753.36
2019-03-22T00:27:31.084Z,102744.22
2019-03-22T00:30:01.748Z,102747.14
2019-03-22T00:32:32.100Z,102751.78
2019-03-22T00:35:02.633Z,102749.84
2019-03-22T00:37:33.727Z,102744.53
2019-03-22T00:40:04.201Z,102751.70
2019-03-22T00:42:34.396Z,102748.68
2019-03-22T00:45:04.630Z,102740.44
2019-03-22T00:47:35.279Z,102749.48
2019-03-22T00:50:06.082Z,102742.69
2019-03-22T00:52:37.038Z,102736.97
2019-03-22T00:55:07.437Z,102743.39
2019-03-22T00:57:37.994Z,102736.20
2019-03-22T01:00:08.967Z,102742.53
2019-03-22T01:02:39.729Z,102742.91
2019-03-22T01:05:10.828Z,102739.02
2019-03-22T01:07:41.239Z,102744.27
2019-03-22T01:10:11.376Z,102754.72
2019-03-22T01:12:41.675Z,102751.87
2019-03-22T01:15:11.813Z,102748.19
2019-03-22T01:17:43.155Z,102745.16
2019-03-22T01:20:14.115Z,102751.36
2019-03-22T01:22:44.717Z,102751.34
2019-03-22T01:25:14.857Z,102752.80
2019-03-22T01:27:46.060Z,102752.37
2019-03-22T01:30:18.942Z,102741.86
2019-03-22T01:32:49.999Z,102742.81
2019-03-22T01:35:20.542Z,102744.17
2019-03-22T01:37:51.999Z,102742.76
2019-03-22T01:40:22.845Z,102740.51
2019-03-22T01:42:53.143Z,102750.21
2019-03-22T01:45:23.800Z,102754.61
2019-03-22T01:47:54.089Z,102750.80
2019-03-22T01:50:24.591Z,102754.34
2019-03-22T01:52:54.666Z,102749.76
2019-03-22T01:55:25.293Z,102746.91
2019-03-22T01:57:58.398Z,102747.92
2019-03-22T02:00:29.072Z,102751.28
2019-03-22T02:03:01.119Z,102749.59
2019-03-22T02:05:31.302Z,102753.17
2019-03-22T02:08:01.779Z,102749.67
2019-03-22T02:10:31.932Z,102749.76
2019-03-22T02:13:02.362Z,102749.28
2019-03-22T02:15:32.523Z,102747.14
2019-03-22T02:18:03.761Z,102744.09
2019-03-22T02:20:33.847Z,102726.26
2019-03-22T02:23:04.091Z,102737.72
2019-03-22T02:25:34.281Z,102725.24
2019-03-22T02:28:05.529Z,102728.91
2019-03-22T02:30:36.024Z,102730.41
2019-03-22T02:33:06.178Z,102735.84
2019-03-22T02:35:36.731Z,102728.91
2019-03-22T02:38:08.022Z,102738.13
2019-03-22T02:40:38.475Z,102728.66
2019-03-22T02:43:08.845Z,102725.94
2019-03-22T02:45:38.898Z,102719.88
2019-03-22T02:48:09.057Z,102719.32
2019-03-22T02:50:39.989Z,102713.45
2019-03-22T02:53:10.193Z,102711.77
2019-03-22T02:55:42.532Z,102713.91
2019-03-22T02:58:20.289Z,102709.87
2019-03-22T03:00:42.939Z,102708.74
2019-03-22T03:03:13.409Z,102709.19
2019-03-22T03:05:43.567Z,102704.56
2019-03-22T03:08:13.741Z,102696.45
2019-03-22T03:10:43.920Z,102697.45
2019-03-22T03:13:14.198Z,102697.23
2019-03-22T03:15:44.436Z,102687.84
2019-03-22T03:18:14.560Z,102678.70
2019-03-22T03:20:45.612Z,102669.43
2019-03-22T03:23:15.768Z,102666.33
2019-03-22T03:25:46.229Z,102667.63
2019-03-22T03:28:16.319Z,102662.04
2019-03-22T03:30:47.148Z,102661.48
2019-03-22T03:33:17.347Z,102659.73
2019-03-22T03:35:47.475Z,102656.15
2019-03-22T03:38:17.619Z,102657.27
2019-03-22T03:40:47.840Z,102659.81
2019-03-22T03:43:18.121Z,102657.70
2019-03-22T03:45:48.690Z,102660.15
2019-03-22T03:48:19.647Z,102657.25
2019-03-22T03:50:50.132Z,102666.84
2019-03-22T03:53:20.447Z,102664.44
2019-03-22T03:55:50.454Z,102669.54
2019-03-22T03:58:20.880Z,102655.69
2019-03-22T04:00:52.263Z,102653.19
2019-03-22T04:03:23.428Z,102652.73
2019-03-22T04:05:53.745Z,102658.88
2019-03-22T04:08:23.957Z,102657.64
2019-03-22T04:10:54.357Z,102649.69
2019-03-22T04:13:24.478Z,102646.09
2019-03-22T04:15:54.597Z,102650.87
2019-03-22T04:18:24.735Z,102651.52
2019-03-22T04:20:55.130Z,102648.28
2019-03-22T04:23:25.339Z,102643.46
2019-03-22T04:25:55.785Z,102654.20
2019-03-22T04:28:26.364Z,102656.80
2019-03-22T04:30:56.416Z,102651.58
2019-03-22T04:33:29.469Z,102655.78
2019-03-22T04:35:59.559Z,102661.05
2019-03-22T04:38:29.794Z,102657.06
2019-03-22T04:41:00.262Z,102662.06
2019-03-22T04:43:30.377Z,102670.10
2019-03-22T04:46:01.000Z,102665.98
2019-03-22T04:48:32.414Z,102651.64
2019-03-22T04:51:02.594Z,102667.03
2019-03-22T04:53:37.310Z,102668.07
2019-03-22T04:56:09.758Z,102670.77
2019-03-22T04:58:40.756Z,102672.12
2019-03-22T05:01:10.888Z,102669.87
2019-03-22T05:03:41.023Z,102672.21
2019-03-22T05:06:11.159Z,102665.92
2019-03-22T05:08:41.346Z,102673.40
2019-03-22T05:11:13.233Z,102663.98
2019-03-22T05:13:44.689Z,102658.20
2019-03-22T05:16:15.307Z,102664.41
2019-03-22T05:18:47.081Z,102664.57
2019-03-22T05:21:17.218Z,102662.94
2019-03-22T05:23:48.508Z,102664.69
2019-03-22T05:26:18.742Z,102657.05
2019-03-22T05:28:49.398Z,102657.86
2019-03-22T05:31:43.936Z,102662.19
2019-03-22T05:34:13.961Z,102660.18
2019-03-22T05:36:44.042Z,102660.23
2019-03-22T05:39:14.151Z,102658.20
2019-03-22T05:41:44.204Z,102652.94
2019-03-22T05:44:14.659Z,102658.55
2019-03-22T05:46:44.623Z,102655.09
2019-03-22T05:49:14.719Z,102659.56
2019-03-22T05:51:45.128Z,102650.95
2019-03-22T05:54:15.406Z,102657.95
2019-03-22T05:56:45.525Z,102653.41
2019-03-22T05:59:15.607Z,102655.92
2019-03-22T06:01:45.734Z,102655.33
2019-03-22T06:04:17.008Z,102660.69
2019-03-22T06:06:48.447Z,102667.05
2019-03-22T06:09:18.512Z,102668.16
2019-03-22T06:11:48.566Z,102668.98
2019-03-22T06:14:18.678Z,102672.14
2019-03-22T06:16:48.786Z,102678.53
2019-03-22T06:19:18.928Z,102684.99
2019-03-22T06:21:49.030Z,102688.84
2019-03-22T06:24:19.124Z,102692.34
2019-03-22T06:26:49.281Z,102690.94
2019-03-22T06:29:19.379Z,102687.70
2019-03-22T06:31:49.390Z,102695.50
2019-03-22T06:34:19.543Z,102687.08
2019-03-22T06:36:49.621Z,102689.28
2019-03-22T06:39:20.117Z,102691.93
2019-03-22T06:41:50.202Z,102693.73
2019-03-22T06:44:20.412Z,102691.53
2019-03-22T06:46:50.494Z,102688.99
2019-03-22T06:49:20.461Z,102691.05
2019-03-22T06:51:50.614Z,102691.75
2019-03-22T06:54:30.991Z,102687.77
2019-03-22T06:56:51.920Z,102695.59
2019-03-22T06:59:22.072Z,102695.11
2019-03-22T07:01:52.203Z,102692.31
2019-03-22T07:04:22.396Z,102692.34
2019-03-22T07:06:52.463Z,102684.22
2019-03-22T07:09:22.635Z,102687.21
2019-03-22T07:11:52.703Z,102684.98
2019-03-22T07:14:22.807Z,102691.91
2019-03-22T07:16:52.897Z,102685.80
2019-03-22T07:19:23.107Z,102684.33
2019-03-22T07:21:53.212Z,102682.19
2019-03-22T07:24:23.536Z,102682.34
2019-03-22T07:26:56.363Z,102690.78
2019-03-22T07:29:24.504Z,102677.42
2019-03-22T07:31:54.569Z,102681.00
2019-03-22T07:34:24.631Z,102681.80
2019-03-22T07:36:54.701Z,102682.45
2019-03-22T07:39:25.057Z,102682.97
2019-03-22T07:41:55.443Z,102665.09
2019-03-22T07:44:25.587Z,102665.53
2019-03-22T07:46:55.723Z,102668.80
2019-03-22T07:49:27.225Z,102675.95
2019-03-22T07:51:58.317Z,102673.53
2019-03-22T07:54:28.407Z,102671.95
2019-03-22T07:56:58.501Z,102671.31
2019-03-22T07:59:28.605Z,102665.11
2019-03-22T08:01:58.652Z,102665.51
2019-03-22T08:04:28.755Z,102669.27
2019-03-22T08:07:01.222Z,102670.53
2019-03-22T08:09:29.934Z,102667.25
2019-03-22T08:11:59.966Z,102661.53
2019-03-22T08:14:30.080Z,102657.36
2019-03-22T08:17:00.363Z,102658.52
2019-03-22T08:19:30.527Z,102666.66
2019-03-22T08:22:00.600Z,102660.73
2019-03-22T08:24:35.849Z,102666.36
2019-03-22T08:27:22.303Z,102663.23
2019-03-22T08:30:04.701Z,102658.77
2019-03-22T08:32:35.124Z,102654.17
2019-03-22T08:35:09.024Z,102655.04
2019-03-22T08:37:51.745Z,102650.67
2019-03-22T08:40:10.064Z,102657.59
2019-03-22T08:42:40.652Z,102654.67
2019-03-22T08:45:11.503Z,102651.24
2019-03-22T08:48:00.261Z,102646.23
2019-03-22T08:50:30.550Z,102648.78
2019-03-22T08:53:00.914Z,102648.55
2019-03-22T08:55:31.202Z,102647.48
2019-03-22T08:58:01.533Z,102649.94
2019-03-22T09:00:39.608Z,102649.44
2019-03-22T09:03:14.815Z,102650.19
2019-03-22T09:05:45.937Z,102643.67
2019-03-22T09:08:18.120Z,102643.13
2019-03-22T09:10:52.422Z,102635.41
2019-03-22T09:13:22.588Z,102642.44
2019-03-22T09:15:54.163Z,102642.36
2019-03-22T09:18:24.668Z,102636.20
2019-03-22T09:21:04.515Z,102633.77
2019-03-22T09:23:34.556Z,102635.48
2019-03-22T09:26:05.733Z,102635.49
2019-03-22T09:28:36.448Z,102625.75
2019-03-22T09:31:10.821Z,102621.86
2019-03-22T09:33:38.219Z,102617.27
2019-03-22T09:36:10.167Z,102611.19
2019-03-22T09:38:46.069Z,102616.61
2019-03-22T09:41:21.704Z,102614.41
2019-03-22T09:43:55.583Z,102611.77
2019-03-22T09:46:26.063Z,102610.34
2019-03-22T09:48:58.682Z,102601.75
2019-03-22T09:51:29.366Z,102601.23
2019-03-22T09:54:17.583Z,102602.34
2019-03-22T09:56:47.957Z,102604.48
2019-03-22T09:59:18.468Z,102594.34
2019-03-22T10:01:48.987Z,102590.81
2019-03-22T10:04:19.414Z,102585.11
2019-03-22T10:06:49.848Z,102583.12
2019-03-22T10:09:20.270Z,102575.64
2019-03-22T10:11:50.639Z,102574.63
2019-03-22T10:14:21.465Z,102571.34
2019-03-22T10:16:51.517Z,102569.83
2019-03-22T10:19:24.666Z,102564.88
2019-03-22T10:21:54.977Z,102564.31
2019-03-22T10:24:25.362Z,102560.73
2019-03-22T10:26:55.881Z,102555.61
2019-03-22T10:29:26.186Z,102558.66
2019-03-22T10:31:56.679Z,102552.54
2019-03-22T10:34:27.515Z,102551.69
2019-03-22T10:36:59.409Z,102547.73
2019-03-22T10:39:32.056Z,102553.83
2019-03-22T10:42:05.050Z,102537.13
2019-03-22T10:44:35.309Z,102535.30
2019-03-22T10:47:08.904Z,102529.72
2019-03-22T10:49:41.863Z,102525.86
2019-03-22T10:52:12.939Z,102529.03
2019-03-22T10:54:41.514Z,102521.74
2019-03-22T10:57:12.103Z,102515.25
2019-03-22T10:59:42.355Z,102518.67
2019-03-22T11:02:12.785Z,102506.50
2019-03-22T11:04:44.613Z,102507.95
2019-03-22T11:07:14.968Z,102504.94
2019-03-22T11:09:45.279Z,102502.52
2019-03-22T11:12:15.780Z,102495.72
2019-03-22T11:14:46.088Z,102495.48
2019-03-22T11:17:16.558Z,102488.56
2019-03-22T11:19:46.872Z,102488.39
2019-03-22T11:58:17.773Z,102428.38
2019-03-22T12:22:50.417Z,102408.09
2019-03-22T12:25:23.247Z,102401.89
2019-03-22T12:27:53.553Z,102399.83
2019-03-22T12:30:23.799Z,102397.74
2019-03-22T12:32:55.095Z,102398.10
2019-03-22T12:35:27.853Z,102384.14
2019-03-22T12:37:58.412Z,102384.30
2019-03-22T12:40:28.897Z,102384.31
2019-03-22T12:42:59.044Z,102387.59
2019-03-22T12:45:29.416Z,102382.61
2019-03-22T12:48:00.548Z,102377.08
2019-03-22T12:50:30.976Z,102368.12
2019-03-22T12:53:01.390Z,102368.45
2019-03-22T12:55:33.337Z,102366.58
2019-03-22T12:58:03.568Z,102357.77
2019-03-22T13:00:33.687Z,102363.47
2019-03-22T13:03:03.999Z,102354.12
2019-03-22T13:05:36.451Z,102349.00
2019-03-22T13:08:07.918Z,102340.35
2019-03-22T13:10:38.095Z,102342.26
2019-03-22T13:13:08.399Z,102333.64
2019-03-22T13:15:38.543Z,102334.83
2019-03-22T13:18:08.796Z,102336.23
2019-03-22T13:20:39.938Z,102330.66
2019-03-22T13:23:12.278Z,102322.80
2019-03-22T13:25:42.326Z,102317.75
2019-03-22T13:28:16.703Z,102312.78
2019-03-22T13:30:47.261Z,102313.47
2019-03-22T13:33:20.926Z,102307.98
2019-03-22T13:35:48.586Z,102301.94
2019-03-22T13:38:24.850Z,102294.19
2019-03-22T13:40:55.054Z,102299.69
2019-03-22T13:43:26.447Z,102293.86
2019-03-22T13:45:58.919Z,102286.08
2019-03-22T13:48:32.631Z,102284.86
2019-03-22T13:51:03.106Z,102279.33
2019-03-22T13:53:35.450Z,102274.66
2019-03-22T13:56:05.760Z,102272.81
2019-03-22T13:58:35.861Z,102263.64
2019-03-22T14:01:06.212Z,102270.20
2019-03-22T14:03:37.302Z,102270.39
2019-03-22T14:06:09.855Z,102259.58
2019-03-22T14:08:40.181Z,102259.91
2019-03-22T14:11:10.270Z,102251.26
2019-03-22T14:13:40.402Z,102251.80
2019-03-22T14:16:10.633Z,102249.88
2019-03-22T14:18:46.642Z,102252.81
2019-03-22T14:21:16.825Z,102246.14
2019-03-22T14:23:50.669Z,102247.86
2019-03-22T14:26:26.326Z,102236.84
2019-03-22T14:28:56.790Z,102241.13
2019-03-22T14:31:29.594Z,102237.17
2019-03-22T14:34:00.840Z,102229.23
2019-03-22T14:36:31.409Z,102230.28
2019-03-22T14:39:01.480Z,102227.33
2019-03-22T14:41:31.541Z,102215.62
2019-03-22T14:44:03.659Z,102212.52
2019-03-22T14:46:36.283Z,102207.54
2019-03-22T14:49:09.170Z,102205.64
2019-03-22T14:51:47.435Z,102194.80
2019-03-22T14:54:18.087Z,102188.27
2019-03-22T14:56:48.264Z,102190.16
2019-03-22T14:59:21.353Z,102190.67
2019-03-22T15:01:51.483Z,102191.88
2019-03-22T15:04:21.681Z,102185.69
2019-03-22T15:06:54.720Z,102179.11
2019-03-22T15:09:26.186Z,102178.44
2019-03-22T15:11:56.360Z,102180.66
2019-03-22T15:14:51.622Z,102180.16
2019-03-22T15:17:33.504Z,102172.91
2019-03-22T15:20:19.095Z,102171.88
2019-03-22T15:23:20.304Z,102171.36
2019-03-22T15:26:08.217Z,102160.22
2019-03-22T15:29:17.854Z,102167.44
2019-03-22T15:32:05.862Z,102157.11
2019-03-22T15:35:04.159Z,102149.36
2019-03-22T15:37:52.017Z,102158.67
2019-03-22T15:40:24.453Z,102154.48
2019-03-22T15:42:54.722Z,102144.20
2019-03-22T15:45:30.201Z,102147.12
2019-03-22T15:48:03.023Z,102147.80
2019-03-22T15:50:33.358Z,102139.03
2019-03-22T15:53:16.931Z,102143.67
2019-03-22T15:55:47.209Z,102135.25
2019-03-22T15:58:17.468Z,102134.73
2019-03-22T16:00:49.545Z,102128.67
2019-03-22T16:03:17.812Z,102127.63
2019-03-22T16:05:48.048Z,102128.48
2019-03-22T16:08:18.296Z,102126.78
2019-03-22T16:10:53.699Z,102125.73
2019-03-22T16:13:26.005Z,102123.67
2019-03-22T16:15:57.111Z,102125.91
2019-03-22T16:18:27.600Z,102120.41
2019-03-22T16:21:00.475Z,102120.25
2019-03-22T16:23:30.712Z,102108.52
2019-03-22T16:26:00.828Z,102110.08
2019-03-22T16:28:35.691Z,102111.80
2019-03-22T16:31:07.735Z,102117.47
2019-03-22T16:33:38.221Z,102113.48
2019-03-22T16:36:11.432Z,102113.97
2019-03-22T16:38:38.929Z,102111.56
2019-03-22T16:41:14.347Z,102111.36
2019-03-22T16:43:47.232Z,102111.25
2019-03-22T16:46:17.492Z,102111.52
2019-03-22T16:48:49.804Z,102116.13
2019-03-22T16:51:18.260Z,102113.87
2019-03-22T16:53:48.470Z,102115.16
2019-03-22T16:56:18.601Z,102121.52
2019-03-22T16:58:48.820Z,102121.84
2019-03-22T17:01:24.928Z,102124.90
2019-03-22T17:04:04.373Z,102121.61
2019-03-22T17:06:32.015Z,102124.63
2019-03-22T17:09:02.809Z,102125.11
2019-03-22T17:11:33.398Z,102127.30
2019-03-22T17:14:03.720Z,102122.93
2019-03-22T17:16:33.953Z,102120.84
2019-03-22T17:19:07.110Z,102123.53
2019-03-22T17:21:42.125Z,102131.17
2019-03-22T17:24:12.262Z,102127.97
2019-03-22T17:26:42.545Z,102132.94
2019-03-22T17:29:16.077Z,102130.43
2019-03-22T17:31:46.655Z,102131.37
2019-03-22T17:34:19.243Z,102132.16
2019-03-22T17:36:52.385Z,102133.66
2019-03-22T17:39:22.728Z,102135.25
2019-03-22T17:41:58.137Z,102140.29
2019-03-22T17:44:28.375Z,102138.05
2019-03-22T17:47:01.596Z,102138.48
2019-03-22T17:49:34.323Z,102138.28
2019-03-22T17:52:04.691Z,102139.13
2019-03-22T17:54:42.924Z,102138.69
2019-03-22T17:57:18.825Z,102137.03
2019-03-22T17:59:46.714Z,102140.65
2019-03-22T18:02:17.077Z,102147.33
2019-03-22T18:04:51.725Z,102152.09
2019-03-22T18:07:27.939Z,102147.33
2019-03-22T18:09:59.266Z,102154.08
2019-03-22T18:12:29.758Z,102159.18
2019-03-22T18:14:59.973Z,102158.80
2019-03-22T18:17:30.223Z,102155.45
2019-03-22T18:20:00.463Z,102159.77
2019-03-22T18:22:30.650Z,102161.23
2019-03-22T18:25:01.372Z,102167.61
2019-03-22T18:27:31.670Z,102172.63
2019-03-22T18:30:02.014Z,102172.95
2019-03-22T18:32:32.094Z,102172.87
2019-03-22T18:35:02.856Z,102178.22
2019-03-22T18:37:35.837Z,102180.27
2019-03-22T18:40:11.567Z,102181.09
2019-03-22T18:42:49.405Z,102183.43
2019-03-22T18:45:19.610Z,102182.70
2019-03-22T18:47:49.898Z,102181.63
2019-03-22T18:50:27.032Z,102179.69
2019-03-22T18:52:55.306Z,102182.87
2019-03-22T18:55:25.789Z,102184.16
2019-03-22T18:58:01.646Z,102186.06
2019-03-22T19:00:34.399Z,102189.45
2019-03-22T19:03:04.756Z,102186.26
2019-03-22T19:05:37.203Z,102193.72
2019-03-22T19:08:05.303Z,102193.86
2019-03-22T19:10:39.861Z,102192.39
2019-03-22T19:13:09.443Z,102190.22
2019-03-22T19:15:39.852Z,102190.91
2019-03-22T19:18:10.025Z,102196.64
2019-03-22T19:20:42.091Z,102195.99
2019-03-22T19:23:12.220Z,102200.21
2019-03-22T19:25:44.964Z,102202.58
2019-03-22T19:28:15.621Z,102197.38
2019-03-22T19:30:46.313Z,102193.53
2019-03-22T19:33:16.519Z,102196.95
2019-03-22T19:35:46.913Z,102192.70
2019-03-22T19:38:16.933Z,102198.14
2019-03-22T19:40:46.905Z,102192.81
2019-03-22T19:43:16.876Z,102189.83
2019-03-22T19:45:46.851Z,102194.74
2019-03-22T19:48:16.816Z,102189.16
2019-03-22T19:50:46.821Z,102189.37
2019-03-22T19:53:16.788Z,102184.98
2019-03-22T19:55:46.779Z,102194.98
2019-03-22T19:58:16.759Z,102195.95
2019-03-22T20:00:46.744Z,102195.99
2019-03-22T20:03:16.704Z,102196.03
2019-03-22T20:05:46.710Z,102194.00
2019-03-22T20:08:16.687Z,102197.80
2019-03-22T20:10:48.876Z,102194.36
2019-03-22T20:13:16.691Z,102195.28
2019-03-22T20:15:46.673Z,102193.81
2019-03-22T20:18:16.648Z,102203.02
2019-03-22T20:20:46.657Z,102208.41
2019-03-22T20:23:16.642Z,102208.94
2019-03-22T20:25:46.642Z,102213.95
2019-03-22T20:28:16.645Z,102207.55
2019-03-22T20:30:46.602Z,102214.05
2019-03-22T20:33:16.559Z,102207.52
2019-03-22T20:35:46.564Z,102209.22
2019-03-22T20:38:16.771Z,102217.05
2019-03-22T20:40:46.779Z,102215.39
2019-03-22T20:43:16.795Z,102215.03
2019-03-22T20:45:46.858Z,102217.61
2019-03-22T20:48:16.841Z,102220.25
2019-03-22T20:50:46.906Z,102219.77
2019-03-22T20:53:16.889Z,102221.45
2019-03-22T20:55:46.907Z,102220.35
2019-03-22T20:58:16.872Z,102224.00
2019-03-22T21:00:46.891Z,102218.96
2019-03-22T21:03:16.885Z,102220.04
2019-03-22T21:05:46.850Z,102219.94
2019-03-22T21:08:16.818Z,102217.17
2019-03-22T21:10:46.759Z,102220.25
2019-03-22T21:13:16.734Z,102216.80
2019-03-22T21:15:46.715Z,102214.71
2019-03-22T21:18:16.699Z,102214.81
2019-03-22T21:20:46.668Z,102214.27
2019-03-22T21:23:16.619Z,102208.94
2019-03-22T21:25:46.610Z,102198.98
2019-03-22T21:28:16.924Z,102203.47
2019-03-22T21:30:46.919Z,102207.45
2019-03-22T21:33:16.881Z,102210.27
2019-03-22T21:35:46.872Z,102210.96
2019-03-22T21:38:16.833Z,102212.87
2019-03-22T21:40:46.825Z,102218.86
2019-03-22T21:43:16.787Z,102221.67
2019-03-22T21:45:46.778Z,102220.05
2019-03-22T21:48:16.797Z,102225.36
2019-03-22T21:50:46.763Z,102224.41
2019-03-22T21:53:16.733Z,102228.05
2019-03-22T21:55:46.696Z,102230.57
2019-03-22T21:58:16.706Z,102238.45
2019-03-22T22:00:46.699Z,102246.20
2019-03-22T22:03:16.598Z,102251.16
2019-03-22T22:05:47.980Z,102243.48
2019-03-22T22:08:16.535Z,102248.02
2019-03-22T22:10:46.503Z,102253.07
2019-03-22T22:13:16.484Z,102255.28
2019-03-22T22:15:46.477Z,102243.87
2019-03-22T22:18:16.446Z,102253.61
2019-03-22T22:20:46.415Z,102251.72
2019-03-22T22:23:16.470Z,102253.27
2019-03-22T22:25:46.381Z,102256.47
2019-03-22T22:28:16.359Z,102252.78
2019-03-22T22:30:46.348Z,102260.48
2019-03-22T22:33:16.303Z,102261.59
2019-03-22T22:35:47.010Z,102254.08
2019-03-22T22:38:16.281Z,102260.28
2019-03-22T22:40:46.250Z,102271.66
2019-03-22T22:43:16.231Z,102264.36
2019-03-22T22:45:46.236Z,102265.41
2019-03-22T22:48:16.211Z,102275.47
2019-03-22T22:50:46.202Z,102275.69
2019-03-22T22:53:16.244Z,102277.72
2019-03-22T22:55:46.226Z,102281.42
2019-03-22T22:58:16.269Z,102281.52
2019-03-22T23:00:46.280Z,102284.33
2019-03-22T23:03:16.276Z,102291.48
2019-03-22T23:05:46.246Z,102294.09
2019-03-22T23:08:16.236Z,102296.80
2019-03-22T23:10:46.221Z,102300.48
2019-03-22T23:13:16.187Z,102290.03
2019-03-22T23:15:46.174Z,102298.45
2019-03-22T23:18:16.128Z,102303.77
2019-03-22T23:20:46.136Z,102307.06
2019-03-22T23:23:16.124Z,102302.32
2019-03-22T23:25:46.096Z,102305.13
2019-03-22T23:28:16.150Z,102303.57
2019-03-22T23:30:46.114Z,102302.41
2019-03-22T23:33:16.109Z,102306.65
2019-03-22T23:35:46.090Z,102311.52
2019-03-22T23:38:16.063Z,102301.13
2019-03-22T23:40:46.059Z,102298.45
2019-03-22T23:43:16.020Z,102303.41
2019-03-22T23:45:45.984Z,102293.94
2019-03-22T23:48:15.966Z,102289.78
2019-03-22T23:50:45.923Z,102298.83
2019-03-22T23:53:15.921Z,102298.16
2019-03-22T23:55:45.863Z,102295.74
2019-03-22T23:58:15.851Z,102293.71
